Terminal Aerodrome Forecast
Issued by NWS Portland, OR

Home | Current Version | Previous Version | Text Only | Print | Product List | Glossary On
Versions: 1 2 3 4 5 6 7 8 9 10 11 12 13 14 15 16
000
FTUS46 KPQR 230539
TAFSLE
TAF
KSLE 230539Z 2306/2406 VRB04KT P6SM SKC
     FM230800 VRB02KT 2SM BR SCT002
     FM231000 VRB02KT 1/2SM FG OVC002
     FM231800 VRB03KT 3SM BR BKN006
     FM231900 36004KT P6SM SKC=

USA.gov is the U.S. government's official web portal to all federal, state and local government web resources and services.